sensor_id;sensor_type;location;lat;lon;timestamp;P1;durP1;ratioP1;P2;durP2;ratioP2
41635;SDS011;27623;51.966;4.602;2022-12-10T00:02:09;61.40;;;21.02;;
41635;SDS011;27623;51.966;4.602;2022-12-10T00:04:37;68.90;;;23.60;;
41635;SDS011;27623;51.966;4.602;2022-12-10T00:07:03;69.53;;;23.58;;
41635;SDS011;27623;51.966;4.602;2022-12-10T00:09:28;68.47;;;23.55;;
41635;SDS011;27623;51.966;4.602;2022-12-10T00:11:54;67.25;;;22.70;;
41635;SDS011;27623;51.966;4.602;2022-12-10T00:14:19;73.10;;;22.25;;
41635;SDS011;27623;51.966;4.602;2022-12-10T00:16:45;72.35;;;23.83;;
41635;SDS011;27623;51.966;4.602;2022-12-10T00:19:10;72.07;;;25.02;;
41635;SDS011;27623;51.966;4.602;2022-12-10T00:21:36;63.60;;;22.38;;
41635;SDS011;27623;51.966;4.602;2022-12-10T00:24:02;65.55;;;21.83;;
41635;SDS011;27623;51.966;4.602;2022-12-10T00:26:32;64.60;;;23.40;;
41635;SDS011;27623;51.966;4.602;2022-12-10T00:29:01;68.50;;;23.25;;
41635;SDS011;27623;51.966;4.602;2022-12-10T00:31:28;63.85;;;22.40;;
41635;SDS011;27623;51.966;4.602;2022-12-10T00:33:57;65.70;;;22.88;;
41635;SDS011;27623;51.966;4.602;2022-12-10T00:36:24;62.97;;;22.05;;
41635;SDS011;27623;51.966;4.602;2022-12-10T00:38:52;66.43;;;21.90;;
41635;SDS011;27623;51.966;4.602;2022-12-10T00:41:18;67.43;;;24.40;;
41635;SDS011;27623;51.966;4.602;2022-12-10T00:43:44;68.65;;;23.25;;
41635;SDS011;27623;51.966;4.602;2022-12-10T00:46:11;66.85;;;23.73;;
41635;SDS011;27623;51.966;4.602;2022-12-10T00:48:39;66.60;;;23.98;;
41635;SDS011;27623;51.966;4.602;2022-12-10T00:51:06;70.15;;;24.10;;
41635;SDS011;27623;51.966;4.602;2022-12-10T00:53:34;66.57;;;24.40;;
41635;SDS011;27623;51.966;4.602;2022-12-10T00:56:00;65.32;;;24.08;;
41635;SDS011;27623;51.966;4.602;2022-12-10T00:58:26;65.47;;;23.17;;
41635;SDS011;27623;51.966;4.602;2022-12-10T01:01:12;63.60;;;23.45;;
41635;SDS011;27623;51.966;4.602;2022-12-10T01:03:41;63.90;;;22.50;;
41635;SDS011;27623;51.966;4.602;2022-12-10T01:06:10;69.72;;;24.50;;
41635;SDS011;27623;51.966;4.602;2022-12-10T01:08:40;58.35;;;23.08;;
41635;SDS011;27623;51.966;4.602;2022-12-10T01:11:07;62.92;;;23.02;;
41635;SDS011;27623;51.966;4.602;2022-12-10T01:13:33;65.43;;;23.88;;
41635;SDS011;27623;51.966;4.602;2022-12-10T01:16:05;70.75;;;23.50;;
41635;SDS011;27623;51.966;4.602;2022-12-10T01:18:31;72.53;;;24.05;;
41635;SDS011;27623;51.966;4.602;2022-12-10T01:21:01;70.30;;;25.65;;
41635;SDS011;27623;51.966;4.602;2022-12-10T01:23:34;77.47;;;24.85;;
41635;SDS011;27623;51.966;4.602;2022-12-10T01:26:03;70.00;;;25.70;;
41635;SDS011;27623;51.966;4.602;2022-12-10T01:28:30;72.32;;;24.77;;
41635;SDS011;27623;51.966;4.602;2022-12-10T01:31:01;67.43;;;23.20;;
41635;SDS011;27623;51.966;4.602;2022-12-10T01:33:30;76.32;;;24.90;;
41635;SDS011;27623;51.966;4.602;2022-12-10T01:35:57;74.28;;;25.48;;
41635;SDS011;27623;51.966;4.602;2022-12-10T01:38:27;75.07;;;26.30;;
41635;SDS011;27623;51.966;4.602;2022-12-10T01:40:52;75.00;;;24.58;;
41635;SDS011;27623;51.966;4.602;2022-12-10T01:43:17;68.90;;;23.13;;
41635;SDS011;27623;51.966;4.602;2022-12-10T01:45:43;65.20;;;22.55;;
41635;SDS011;27623;51.966;4.602;2022-12-10T01:48:08;70.25;;;24.58;;
41635;SDS011;27623;51.966;4.602;2022-12-10T01:50:34;67.07;;;23.33;;
41635;SDS011;27623;51.966;4.602;2022-12-10T01:53:02;73.65;;;24.85;;
41635;SDS011;27623;51.966;4.602;2022-12-10T01:56:01;70.35;;;24.92;;
41635;SDS011;27623;51.966;4.602;2022-12-10T01:58:22;66.55;;;24.35;;
41635;SDS011;27623;51.966;4.602;2022-12-10T02:00:55;66.63;;;24.13;;
41635;SDS011;27623;51.966;4.602;2022-12-10T02:06:16;71.20;;;25.30;;
41635;SDS011;27623;51.966;4.602;2022-12-10T02:09:36;67.20;;;23.95;;
41635;SDS011;27623;51.966;4.602;2022-12-10T02:11:53;63.28;;;22.92;;
41635;SDS011;27623;51.966;4.602;2022-12-10T02:17:12;70.72;;;23.23;;
41635;SDS011;27623;51.966;4.602;2022-12-10T02:22:33;65.88;;;23.52;;
41635;SDS011;27623;51.966;4.602;2022-12-10T02:25:03;69.43;;;23.42;;
41635;SDS011;27623;51.966;4.602;2022-12-10T02:27:47;60.70;;;23.33;;
41635;SDS011;27623;51.966;4.602;2022-12-10T02:30:22;76.50;;;24.10;;
41635;SDS011;27623;51.966;4.602;2022-12-10T02:32:51;68.70;;;21.20;;
41635;SDS011;27623;51.966;4.602;2022-12-10T02:35:21;68.65;;;23.60;;
41635;SDS011;27623;51.966;4.602;2022-12-10T02:37:55;74.72;;;21.63;;
41635;SDS011;27623;51.966;4.602;2022-12-10T02:40:26;73.63;;;22.88;;
41635;SDS011;27623;51.966;4.602;2022-12-10T02:42:56;87.57;;;22.48;;
41635;SDS011;27623;51.966;4.602;2022-12-10T02:45:22;65.63;;;21.50;;
41635;SDS011;27623;51.966;4.602;2022-12-10T02:47:50;70.10;;;20.88;;
41635;SDS011;27623;51.966;4.602;2022-12-10T02:50:18;69.15;;;20.85;;
41635;SDS011;27623;51.966;4.602;2022-12-10T02:52:46;61.40;;;20.45;;
41635;SDS011;27623;51.966;4.602;2022-12-10T02:55:12;62.10;;;19.67;;
41635;SDS011;27623;51.966;4.602;2022-12-10T03:00:13;58.33;;;20.08;;
41635;SDS011;27623;51.966;4.602;2022-12-10T03:02:53;58.78;;;18.08;;
41635;SDS011;27623;51.966;4.602;2022-12-10T03:08:17;63.58;;;19.90;;
41635;SDS011;27623;51.966;4.602;2022-12-10T03:10:57;71.53;;;20.40;;
41635;SDS011;27623;51.966;4.602;2022-12-10T03:13:32;53.15;;;17.70;;
41635;SDS011;27623;51.966;4.602;2022-12-10T03:16:04;58.80;;;18.60;;
41635;SDS011;27623;51.966;4.602;2022-12-10T03:18:30;61.63;;;19.40;;
41635;SDS011;27623;51.966;4.602;2022-12-10T03:21:01;59.13;;;18.50;;
41635;SDS011;27623;51.966;4.602;2022-12-10T03:23:30;65.35;;;19.20;;
41635;SDS011;27623;51.966;4.602;2022-12-10T03:25:58;73.47;;;18.75;;
41635;SDS011;27623;51.966;4.602;2022-12-10T03:28:27;59.70;;;18.85;;
41635;SDS011;27623;51.966;4.602;2022-12-10T03:31:02;72.57;;;20.77;;
41635;SDS011;27623;51.966;4.602;2022-12-10T03:33:29;88.80;;;19.83;;
41635;SDS011;27623;51.966;4.602;2022-12-10T03:35:54;70.82;;;19.75;;
41635;SDS011;27623;51.966;4.602;2022-12-10T03:38:21;69.45;;;19.67;;
41635;SDS011;27623;51.966;4.602;2022-12-10T03:40:47;61.70;;;18.42;;
41635;SDS011;27623;51.966;4.602;2022-12-10T03:43:13;72.28;;;21.15;;
41635;SDS011;27623;51.966;4.602;2022-12-10T03:45:39;68.85;;;17.90;;
41635;SDS011;27623;51.966;4.602;2022-12-10T03:48:05;58.25;;;18.75;;
41635;SDS011;27623;51.966;4.602;2022-12-10T03:50:31;59.30;;;18.70;;
41635;SDS011;27623;51.966;4.602;2022-12-10T03:52:57;63.50;;;20.30;;
41635;SDS011;27623;51.966;4.602;2022-12-10T03:55:23;76.60;;;20.20;;
41635;SDS011;27623;51.966;4.602;2022-12-10T03:57:48;62.10;;;19.70;;
41635;SDS011;27623;51.966;4.602;2022-12-10T04:00:14;63.42;;;20.90;;
41635;SDS011;27623;51.966;4.602;2022-12-10T04:02:42;79.97;;;18.88;;
41635;SDS011;27623;51.966;4.602;2022-12-10T04:05:11;61.75;;;19.30;;
41635;SDS011;27623;51.966;4.602;2022-12-10T04:07:37;65.65;;;20.35;;
41635;SDS011;27623;51.966;4.602;2022-12-10T04:10:04;73.68;;;19.17;;
41635;SDS011;27623;51.966;4.602;2022-12-10T04:12:34;78.70;;;17.15;;
41635;SDS011;27623;51.966;4.602;2022-12-10T04:15:01;60.35;;;19.63;;
41635;SDS011;27623;51.966;4.602;2022-12-10T04:17:46;64.70;;;19.43;;
41635;SDS011;27623;51.966;4.602;2022-12-10T04:20:12;51.85;;;18.42;;
41635;SDS011;27623;51.966;4.602;2022-12-10T04:22:56;81.15;;;18.00;;
41635;SDS011;27623;51.966;4.602;2022-12-10T04:25:40;49.83;;;18.23;;
41635;SDS011;27623;51.966;4.602;2022-12-10T04:28:24;76.82;;;21.85;;
41635;SDS011;27623;51.966;4.602;2022-12-10T04:30:50;71.50;;;20.73;;
41635;SDS011;27623;51.966;4.602;2022-12-10T04:33:21;61.58;;;20.63;;
41635;SDS011;27623;51.966;4.602;2022-12-10T04:35:46;57.42;;;20.17;;
41635;SDS011;27623;51.966;4.602;2022-12-10T04:38:11;66.53;;;21.88;;
41635;SDS011;27623;51.966;4.602;2022-12-10T04:40:37;63.60;;;20.98;;
41635;SDS011;27623;51.966;4.602;2022-12-10T04:43:02;47.85;;;14.80;;
41635;SDS011;27623;51.966;4.602;2022-12-10T04:45:30;49.95;;;17.95;;
41635;SDS011;27623;51.966;4.602;2022-12-10T04:47:59;52.10;;;18.63;;
41635;SDS011;27623;51.966;4.602;2022-12-10T04:50:25;54.30;;;19.48;;
41635;SDS011;27623;51.966;4.602;2022-12-10T04:52:50;52.60;;;19.60;;
41635;SDS011;27623;51.966;4.602;2022-12-10T04:55:16;54.95;;;18.92;;
41635;SDS011;27623;51.966;4.602;2022-12-10T04:57:42;52.88;;;16.63;;
41635;SDS011;27623;51.966;4.602;2022-12-10T05:00:07;70.28;;;18.92;;
41635;SDS011;27623;51.966;4.602;2022-12-10T05:02:37;51.42;;;17.92;;
41635;SDS011;27623;51.966;4.602;2022-12-10T05:05:05;55.45;;;17.85;;
41635;SDS011;27623;51.966;4.602;2022-12-10T05:07:32;51.17;;;19.02;;
41635;SDS011;27623;51.966;4.602;2022-12-10T05:09:58;45.55;;;17.45;;
41635;SDS011;27623;51.966;4.602;2022-12-10T05:12:23;57.38;;;15.05;;
41635;SDS011;27623;51.966;4.602;2022-12-10T05:14:49;41.28;;;15.38;;
41635;SDS011;27623;51.966;4.602;2022-12-10T05:17:14;55.13;;;18.55;;
41635;SDS011;27623;51.966;4.602;2022-12-10T05:19:40;57.47;;;18.38;;
41635;SDS011;27623;51.966;4.602;2022-12-10T05:22:07;47.83;;;18.27;;
41635;SDS011;27623;51.966;4.602;2022-12-10T05:24:51;52.58;;;20.02;;
41635;SDS011;27623;51.966;4.602;2022-12-10T05:27:17;51.30;;;17.55;;
41635;SDS011;27623;51.966;4.602;2022-12-10T05:29:45;53.67;;;18.25;;
41635;SDS011;27623;51.966;4.602;2022-12-10T05:32:10;48.83;;;17.52;;
41635;SDS011;27623;51.966;4.602;2022-12-10T05:34:36;52.13;;;18.02;;
41635;SDS011;27623;51.966;4.602;2022-12-10T05:37:01;49.28;;;17.98;;
41635;SDS011;27623;51.966;4.602;2022-12-10T05:39:27;46.70;;;16.00;;
41635;SDS011;27623;51.966;4.602;2022-12-10T05:41:52;60.15;;;16.50;;
41635;SDS011;27623;51.966;4.602;2022-12-10T05:44:17;56.15;;;18.30;;
41635;SDS011;27623;51.966;4.602;2022-12-10T05:46:43;51.58;;;16.42;;
41635;SDS011;27623;51.966;4.602;2022-12-10T05:49:11;49.85;;;18.13;;
41635;SDS011;27623;51.966;4.602;2022-12-10T05:51:36;54.63;;;20.27;;
41635;SDS011;27623;51.966;4.602;2022-12-10T05:54:05;54.42;;;18.08;;
41635;SDS011;27623;51.966;4.602;2022-12-10T05:56:34;51.03;;;17.73;;
41635;SDS011;27623;51.966;4.602;2022-12-10T05:59:00;55.22;;;16.50;;
41635;SDS011;27623;51.966;4.602;2022-12-10T06:01:28;54.17;;;18.20;;
41635;SDS011;27623;51.966;4.602;2022-12-10T06:03:57;66.10;;;18.10;;
41635;SDS011;27623;51.966;4.602;2022-12-10T06:06:25;50.35;;;18.65;;
41635;SDS011;27623;51.966;4.602;2022-12-10T06:08:52;50.95;;;18.58;;
41635;SDS011;27623;51.966;4.602;2022-12-10T06:11:17;51.08;;;18.90;;
41635;SDS011;27623;51.966;4.602;2022-12-10T06:13:43;50.40;;;17.40;;
41635;SDS011;27623;51.966;4.602;2022-12-10T06:16:10;52.92;;;18.95;;
41635;SDS011;27623;51.966;4.602;2022-12-10T06:18:37;51.35;;;18.40;;
41635;SDS011;27623;51.966;4.602;2022-12-10T06:21:03;53.90;;;18.05;;
41635;SDS011;27623;51.966;4.602;2022-12-10T06:23:39;43.42;;;14.93;;
41635;SDS011;27623;51.966;4.602;2022-12-10T06:26:07;46.08;;;16.95;;
41635;SDS011;27623;51.966;4.602;2022-12-10T06:28:35;43.40;;;16.88;;
41635;SDS011;27623;51.966;4.602;2022-12-10T06:31:00;50.47;;;17.17;;
41635;SDS011;27623;51.966;4.602;2022-12-10T06:33:26;54.47;;;18.50;;
41635;SDS011;27623;51.966;4.602;2022-12-10T06:35:53;58.60;;;18.08;;
41635;SDS011;27623;51.966;4.602;2022-12-10T06:38:19;50.85;;;17.25;;
41635;SDS011;27623;51.966;4.602;2022-12-10T06:40:44;65.38;;;19.52;;
41635;SDS011;27623;51.966;4.602;2022-12-10T06:43:10;58.17;;;18.58;;
41635;SDS011;27623;51.966;4.602;2022-12-10T06:45:39;46.80;;;17.60;;
41635;SDS011;27623;51.966;4.602;2022-12-10T06:48:08;49.35;;;16.30;;
41635;SDS011;27623;51.966;4.602;2022-12-10T06:50:34;46.65;;;16.30;;
41635;SDS011;27623;51.966;4.602;2022-12-10T06:53:00;62.22;;;16.85;;
41635;SDS011;27623;51.966;4.602;2022-12-10T06:55:26;45.10;;;17.60;;
41635;SDS011;27623;51.966;4.602;2022-12-10T06:57:51;51.22;;;18.50;;
41635;SDS011;27623;51.966;4.602;2022-12-10T07:00:20;49.58;;;16.92;;
41635;SDS011;27623;51.966;4.602;2022-12-10T07:02:46;51.38;;;17.92;;
41635;SDS011;27623;51.966;4.602;2022-12-10T07:05:12;47.13;;;17.08;;
41635;SDS011;27623;51.966;4.602;2022-12-10T07:07:40;50.63;;;18.05;;
41635;SDS011;27623;51.966;4.602;2022-12-10T07:10:06;46.92;;;17.80;;
41635;SDS011;27623;51.966;4.602;2022-12-10T07:12:31;54.97;;;18.50;;
41635;SDS011;27623;51.966;4.602;2022-12-10T07:14:57;50.42;;;18.63;;
41635;SDS011;27623;51.966;4.602;2022-12-10T07:17:23;57.88;;;18.80;;
41635;SDS011;27623;51.966;4.602;2022-12-10T07:19:49;51.38;;;17.33;;
41635;SDS011;27623;51.966;4.602;2022-12-10T07:22:14;52.15;;;18.10;;
41635;SDS011;27623;51.966;4.602;2022-12-10T07:24:42;67.03;;;19.23;;
41635;SDS011;27623;51.966;4.602;2022-12-10T07:27:07;56.22;;;19.10;;
41635;SDS011;27623;51.966;4.602;2022-12-10T07:29:33;57.08;;;19.98;;
41635;SDS011;27623;51.966;4.602;2022-12-10T07:31:58;57.40;;;20.80;;
41635;SDS011;27623;51.966;4.602;2022-12-10T07:34:24;53.42;;;19.92;;
41635;SDS011;27623;51.966;4.602;2022-12-10T07:36:49;52.05;;;18.45;;
41635;SDS011;27623;51.966;4.602;2022-12-10T07:39:15;59.03;;;21.40;;
41635;SDS011;27623;51.966;4.602;2022-12-10T07:41:49;60.03;;;19.38;;
41635;SDS011;27623;51.966;4.602;2022-12-10T07:44:16;51.95;;;16.75;;
41635;SDS011;27623;51.966;4.602;2022-12-10T07:46:43;59.13;;;17.90;;
41635;SDS011;27623;51.966;4.602;2022-12-10T07:49:09;53.97;;;17.55;;
41635;SDS011;27623;51.966;4.602;2022-12-10T07:51:34;53.15;;;18.40;;
41635;SDS011;27623;51.966;4.602;2022-12-10T07:54:00;85.95;;;19.98;;
41635;SDS011;27623;51.966;4.602;2022-12-10T07:56:26;54.22;;;18.95;;
41635;SDS011;27623;51.966;4.602;2022-12-10T07:58:51;53.08;;;19.60;;
41635;SDS011;27623;51.966;4.602;2022-12-10T08:01:22;63.78;;;19.73;;
41635;SDS011;27623;51.966;4.602;2022-12-10T08:03:49;55.60;;;19.20;;
41635;SDS011;27623;51.966;4.602;2022-12-10T08:06:16;57.72;;;18.65;;
41635;SDS011;27623;51.966;4.602;2022-12-10T08:08:43;51.45;;;16.25;;
41635;SDS011;27623;51.966;4.602;2022-12-10T08:11:09;51.25;;;17.23;;
41635;SDS011;27623;51.966;4.602;2022-12-10T08:13:36;52.85;;;18.02;;
41635;SDS011;27623;51.966;4.602;2022-12-10T08:16:06;54.72;;;16.33;;
41635;SDS011;27623;51.966;4.602;2022-12-10T08:18:33;66.78;;;16.30;;
41635;SDS011;27623;51.966;4.602;2022-12-10T08:21:05;56.38;;;15.73;;
41635;SDS011;27623;51.966;4.602;2022-12-10T08:23:31;61.88;;;18.92;;
41635;SDS011;27623;51.966;4.602;2022-12-10T08:25:57;45.38;;;16.27;;
41635;SDS011;27623;51.966;4.602;2022-12-10T08:28:22;58.08;;;19.30;;
41635;SDS011;27623;51.966;4.602;2022-12-10T08:30:48;58.55;;;18.60;;
41635;SDS011;27623;51.966;4.602;2022-12-10T08:33:14;67.70;;;19.75;;
41635;SDS011;27623;51.966;4.602;2022-12-10T08:35:41;51.67;;;18.17;;
41635;SDS011;27623;51.966;4.602;2022-12-10T08:38:06;61.22;;;18.77;;
41635;SDS011;27623;51.966;4.602;2022-12-10T08:40:32;69.82;;;19.83;;
41635;SDS011;27623;51.966;4.602;2022-12-10T08:42:57;59.28;;;17.65;;
41635;SDS011;27623;51.966;4.602;2022-12-10T08:45:23;58.40;;;17.33;;
41635;SDS011;27623;51.966;4.602;2022-12-10T08:47:49;88.00;;;22.38;;
41635;SDS011;27623;51.966;4.602;2022-12-10T08:50:14;51.03;;;17.85;;
41635;SDS011;27623;51.966;4.602;2022-12-10T08:52:40;59.40;;;18.67;;
41635;SDS011;27623;51.966;4.602;2022-12-10T08:55:06;51.28;;;17.50;;
41635;SDS011;27623;51.966;4.602;2022-12-10T08:57:32;69.88;;;20.60;;
41635;SDS011;27623;51.966;4.602;2022-12-10T08:59:58;63.28;;;19.33;;
41635;SDS011;27623;51.966;4.602;2022-12-10T09:02:26;52.30;;;15.18;;
41635;SDS011;27623;51.966;4.602;2022-12-10T09:04:53;55.15;;;17.23;;
41635;SDS011;27623;51.966;4.602;2022-12-10T09:07:18;59.03;;;17.50;;
41635;SDS011;27623;51.966;4.602;2022-12-10T09:09:43;50.10;;;16.67;;
41635;SDS011;27623;51.966;4.602;2022-12-10T09:12:09;49.38;;;15.20;;
41635;SDS011;27623;51.966;4.602;2022-12-10T09:14:37;56.28;;;17.02;;
41635;SDS011;27623;51.966;4.602;2022-12-10T09:17:03;50.55;;;16.15;;
41635;SDS011;27623;51.966;4.602;2022-12-10T09:19:29;55.95;;;17.20;;
41635;SDS011;27623;51.966;4.602;2022-12-10T09:21:55;66.97;;;20.70;;
41635;SDS011;27623;51.966;4.602;2022-12-10T09:24:20;50.85;;;17.20;;
41635;SDS011;27623;51.966;4.602;2022-12-10T09:26:46;52.55;;;16.67;;
41635;SDS011;27623;51.966;4.602;2022-12-10T09:29:12;55.20;;;18.88;;
41635;SDS011;27623;51.966;4.602;2022-12-10T09:31:38;58.05;;;18.02;;
41635;SDS011;27623;51.966;4.602;2022-12-10T09:34:03;60.38;;;17.88;;
41635;SDS011;27623;51.966;4.602;2022-12-10T09:36:29;57.97;;;18.80;;
41635;SDS011;27623;51.966;4.602;2022-12-10T09:38:54;52.88;;;17.15;;
41635;SDS011;27623;51.966;4.602;2022-12-10T09:44:00;48.42;;;17.48;;
41635;SDS011;27623;51.966;4.602;2022-12-10T09:52:01;53.75;;;17.10;;
41635;SDS011;27623;51.966;4.602;2022-12-10T09:54:33;57.97;;;16.40;;
41635;SDS011;27623;51.966;4.602;2022-12-10T09:57:03;54.80;;;17.83;;
41635;SDS011;27623;51.966;4.602;2022-12-10T09:59:36;50.53;;;17.52;;
41635;SDS011;27623;51.966;4.602;2022-12-10T10:05:40;52.00;;;16.58;;
41635;SDS011;27623;51.966;4.602;2022-12-10T10:07:52;51.40;;;16.35;;
41635;SDS011;27623;51.966;4.602;2022-12-10T10:12:55;47.17;;;18.00;;
41635;SDS011;27623;51.966;4.602;2022-12-10T10:15:29;58.03;;;18.45;;
41635;SDS011;27623;51.966;4.602;2022-12-10T10:17:58;57.33;;;17.50;;
41635;SDS011;27623;51.966;4.602;2022-12-10T10:20:30;59.33;;;19.17;;
41635;SDS011;27623;51.966;4.602;2022-12-10T10:22:56;52.55;;;18.48;;
41635;SDS011;27623;51.966;4.602;2022-12-10T10:25:23;65.57;;;21.35;;
41635;SDS011;27623;51.966;4.602;2022-12-10T10:27:49;65.72;;;21.55;;
41635;SDS011;27623;51.966;4.602;2022-12-10T10:30:16;49.83;;;18.45;;
41635;SDS011;27623;51.966;4.602;2022-12-10T10:32:50;57.50;;;18.85;;
41635;SDS011;27623;51.966;4.602;2022-12-10T10:35:25;53.75;;;19.10;;
41635;SDS011;27623;51.966;4.602;2022-12-10T10:37:50;57.35;;;18.85;;
41635;SDS011;27623;51.966;4.602;2022-12-10T10:40:42;62.42;;;20.25;;
41635;SDS011;27623;51.966;4.602;2022-12-10T10:43:26;63.47;;;21.10;;
41635;SDS011;27623;51.966;4.602;2022-12-10T10:48:29;61.58;;;21.15;;
41635;SDS011;27623;51.966;4.602;2022-12-10T10:50:55;61.22;;;19.25;;
41635;SDS011;27623;51.966;4.602;2022-12-10T10:53:32;60.03;;;20.05;;
41635;SDS011;27623;51.966;4.602;2022-12-10T10:58:36;67.05;;;21.40;;
41635;SDS011;27623;51.966;4.602;2022-12-10T11:01:12;66.35;;;24.40;;
41635;SDS011;27623;51.966;4.602;2022-12-10T11:03:37;67.32;;;20.60;;
41635;SDS011;27623;51.966;4.602;2022-12-10T11:06:12;64.63;;;19.95;;
41635;SDS011;27623;51.966;4.602;2022-12-10T11:08:38;74.35;;;23.13;;
41635;SDS011;27623;51.966;4.602;2022-12-10T11:11:06;66.15;;;22.05;;
41635;SDS011;27623;51.966;4.602;2022-12-10T11:13:43;73.45;;;20.30;;
41635;SDS011;27623;51.966;4.602;2022-12-10T11:16:10;72.72;;;23.27;;
41635;SDS011;27623;51.966;4.602;2022-12-10T11:21:27;70.80;;;21.92;;
41635;SDS011;27623;51.966;4.602;2022-12-10T11:23:54;64.15;;;22.13;;
41635;SDS011;27623;51.966;4.602;2022-12-10T11:34:30;69.55;;;21.95;;
41635;SDS011;27623;51.966;4.602;2022-12-10T11:40:01;71.70;;;22.25;;
41635;SDS011;27623;51.966;4.602;2022-12-10T11:50:50;82.00;;;22.55;;
41635;SDS011;27623;51.966;4.602;2022-12-10T11:58:59;77.55;;;24.45;;
41635;SDS011;27623;51.966;4.602;2022-12-10T12:09:46;69.03;;;23.05;;
41635;SDS011;27623;51.966;4.602;2022-12-10T12:14:56;82.22;;;25.63;;
41635;SDS011;27623;51.966;4.602;2022-12-10T12:17:26;72.70;;;23.17;;
41635;SDS011;27623;51.966;4.602;2022-12-10T12:20:11;69.63;;;22.50;;
41635;SDS011;27623;51.966;4.602;2022-12-10T12:23:15;57.80;;;17.50;;
41635;SDS011;27623;51.966;4.602;2022-12-10T12:25:50;65.05;;;19.98;;
41635;SDS011;27623;51.966;4.602;2022-12-10T12:31:26;60.33;;;20.77;;
41635;SDS011;27623;51.966;4.602;2022-12-10T12:34:05;63.78;;;21.23;;
41635;SDS011;27623;51.966;4.602;2022-12-10T12:36:42;54.10;;;19.10;;
41635;SDS011;27623;51.966;4.602;2022-12-10T12:45:31;66.28;;;21.88;;
41635;SDS011;27623;51.966;4.602;2022-12-10T12:50:54;64.72;;;21.20;;
41635;SDS011;27623;51.966;4.602;2022-12-10T12:53:25;70.65;;;22.40;;
41635;SDS011;27623;51.966;4.602;2022-12-10T12:58:47;78.65;;;24.65;;
41635;SDS011;27623;51.966;4.602;2022-12-10T13:01:37;72.60;;;22.52;;
41635;SDS011;27623;51.966;4.602;2022-12-10T13:04:07;70.47;;;20.77;;
41635;SDS011;27623;51.966;4.602;2022-12-10T13:06:33;75.80;;;22.33;;
41635;SDS011;27623;51.966;4.602;2022-12-10T13:11:38;65.25;;;20.90;;
41635;SDS011;27623;51.966;4.602;2022-12-10T13:30:04;76.40;;;23.00;;
41635;SDS011;27623;51.966;4.602;2022-12-10T13:32:52;64.30;;;22.55;;
41635;SDS011;27623;51.966;4.602;2022-12-10T13:35:29;67.47;;;20.60;;
41635;SDS011;27623;51.966;4.602;2022-12-10T13:38:17;63.75;;;21.95;;
41635;SDS011;27623;51.966;4.602;2022-12-10T13:40:56;65.40;;;21.67;;
41635;SDS011;27623;51.966;4.602;2022-12-10T13:43:42;59.70;;;18.80;;
41635;SDS011;27623;51.966;4.602;2022-12-10T13:46:55;55.72;;;19.33;;
41635;SDS011;27623;51.966;4.602;2022-12-10T13:49:25;58.95;;;20.40;;
41635;SDS011;27623;51.966;4.602;2022-12-10T13:52:05;56.70;;;19.42;;
41635;SDS011;27623;51.966;4.602;2022-12-10T14:00:15;49.58;;;16.48;;
41635;SDS011;27623;51.966;4.602;2022-12-10T14:05:45;48.97;;;18.20;;
41635;SDS011;27623;51.966;4.602;2022-12-10T14:08:28;45.40;;;16.60;;
41635;SDS011;27623;51.966;4.602;2022-12-10T14:10:56;49.63;;;15.98;;
41635;SDS011;27623;51.966;4.602;2022-12-10T14:13:27;60.95;;;18.70;;
41635;SDS011;27623;51.966;4.602;2022-12-10T14:16:05;59.40;;;20.33;;
41635;SDS011;27623;51.966;4.602;2022-12-10T14:18:36;61.25;;;22.13;;
41635;SDS011;27623;51.966;4.602;2022-12-10T14:21:03;60.33;;;19.40;;
41635;SDS011;27623;51.966;4.602;2022-12-10T14:23:32;52.70;;;19.58;;
41635;SDS011;27623;51.966;4.602;2022-12-10T14:26:05;54.65;;;19.35;;
41635;SDS011;27623;51.966;4.602;2022-12-10T14:28:40;57.58;;;21.77;;
41635;SDS011;27623;51.966;4.602;2022-12-10T14:31:13;72.07;;;22.67;;
41635;SDS011;27623;51.966;4.602;2022-12-10T14:33:44;54.75;;;19.95;;
41635;SDS011;27623;51.966;4.602;2022-12-10T14:36:17;58.20;;;19.75;;
41635;SDS011;27623;51.966;4.602;2022-12-10T14:38:49;60.22;;;19.10;;
41635;SDS011;27623;51.966;4.602;2022-12-10T14:41:17;62.10;;;21.33;;
41635;SDS011;27623;51.966;4.602;2022-12-10T14:43:45;67.72;;;21.00;;
41635;SDS011;27623;51.966;4.602;2022-12-10T14:46:14;60.03;;;20.08;;
41635;SDS011;27623;51.966;4.602;2022-12-10T14:48:48;66.90;;;20.60;;
41635;SDS011;27623;51.966;4.602;2022-12-10T14:51:18;63.70;;;19.60;;
41635;SDS011;27623;51.966;4.602;2022-12-10T14:53:46;66.45;;;21.58;;
41635;SDS011;27623;51.966;4.602;2022-12-10T14:56:24;57.10;;;19.65;;
41635;SDS011;27623;51.966;4.602;2022-12-10T15:01:43;59.33;;;20.95;;
41635;SDS011;27623;51.966;4.602;2022-12-10T15:04:13;68.35;;;21.38;;
41635;SDS011;27623;51.966;4.602;2022-12-10T15:06:41;65.53;;;20.42;;
41635;SDS011;27623;51.966;4.602;2022-12-10T15:09:16;79.60;;;22.40;;
41635;SDS011;27623;51.966;4.602;2022-12-10T15:11:44;73.20;;;21.92;;
41635;SDS011;27623;51.966;4.602;2022-12-10T15:14:16;77.10;;;23.35;;
41635;SDS011;27623;51.966;4.602;2022-12-10T15:16:44;69.10;;;23.25;;
41635;SDS011;27623;51.966;4.602;2022-12-10T15:19:21;74.53;;;23.35;;
41635;SDS011;27623;51.966;4.602;2022-12-10T15:21:50;73.35;;;24.50;;
41635;SDS011;27623;51.966;4.602;2022-12-10T15:24:20;76.35;;;22.67;;
41635;SDS011;27623;51.966;4.602;2022-12-10T15:26:51;68.73;;;23.60;;
41635;SDS011;27623;51.966;4.602;2022-12-10T15:32:33;72.93;;;22.25;;
41635;SDS011;27623;51.966;4.602;2022-12-10T15:34:47;74.38;;;23.73;;
41635;SDS011;27623;51.966;4.602;2022-12-10T15:37:16;70.40;;;21.27;;
41635;SDS011;27623;51.966;4.602;2022-12-10T15:39:54;76.18;;;23.85;;
41635;SDS011;27623;51.966;4.602;2022-12-10T15:45:03;66.20;;;21.13;;
41635;SDS011;27623;51.966;4.602;2022-12-10T15:47:37;86.13;;;25.35;;
41635;SDS011;27623;51.966;4.602;2022-12-10T15:50:03;82.38;;;27.40;;
41635;SDS011;27623;51.966;4.602;2022-12-10T15:52:30;81.50;;;25.10;;
41635;SDS011;27623;51.966;4.602;2022-12-10T15:54:57;76.57;;;26.10;;
41635;SDS011;27623;51.966;4.602;2022-12-10T15:59:52;83.85;;;26.35;;
41635;SDS011;27623;51.966;4.602;2022-12-10T16:02:24;84.82;;;26.00;;
41635;SDS011;27623;51.966;4.602;2022-12-10T16:04:53;80.72;;;24.05;;
41635;SDS011;27623;51.966;4.602;2022-12-10T16:07:19;81.13;;;25.80;;
41635;SDS011;27623;51.966;4.602;2022-12-10T16:09:44;85.47;;;26.02;;
41635;SDS011;27623;51.966;4.602;2022-12-10T16:12:11;92.88;;;25.00;;
41635;SDS011;27623;51.966;4.602;2022-12-10T16:14:38;80.13;;;25.30;;
41635;SDS011;27623;51.966;4.602;2022-12-10T16:17:12;84.35;;;24.95;;
41635;SDS011;27623;51.966;4.602;2022-12-10T16:19:38;82.82;;;24.48;;
41635;SDS011;27623;51.966;4.602;2022-12-10T16:22:04;88.57;;;26.92;;
41635;SDS011;27623;51.966;4.602;2022-12-10T16:24:29;81.90;;;27.77;;
41635;SDS011;27623;51.966;4.602;2022-12-10T16:26:55;82.60;;;27.50;;
41635;SDS011;27623;51.966;4.602;2022-12-10T16:29:21;94.72;;;28.10;;
41635;SDS011;27623;51.966;4.602;2022-12-10T16:31:46;79.75;;;25.23;;
41635;SDS011;27623;51.966;4.602;2022-12-10T16:34:12;90.53;;;26.65;;
41635;SDS011;27623;51.966;4.602;2022-12-10T16:36:37;82.18;;;25.52;;
41635;SDS011;27623;51.966;4.602;2022-12-10T16:39:03;83.80;;;26.98;;